createdAt,value
2019-05-11T00:01:29.068Z,99.90
2019-05-11T00:03:58.804Z,99.90
2019-05-11T00:06:28.732Z,99.90
2019-05-11T00:08:58.455Z,99.90
2019-05-11T00:11:28.573Z,99.90
2019-05-11T00:13:58.456Z,99.90
2019-05-11T00:16:28.196Z,99.90
2019-05-11T00:18:58.023Z,99.90
2019-05-11T00:21:27.908Z,99.90
2019-05-11T00:23:57.624Z,99.90
2019-05-11T00:26:27.679Z,99.90
2019-05-11T00:28:57.556Z,99.90
2019-05-11T00:31:27.263Z,99.90
2019-05-11T00:33:57.344Z,99.90
2019-05-11T00:36:27.243Z,99.90
2019-05-11T00:38:56.984Z,99.90
2019-05-11T00:41:26.735Z,99.90
2019-05-11T00:43:56.818Z,99.90
2019-05-11T00:46:26.686Z,99.90
2019-05-11T00:48:56.694Z,99.90
2019-05-11T00:51:26.599Z,99.90
2019-05-11T00:53:56.403Z,99.90
2019-05-11T00:56:26.116Z,99.90
2019-05-11T00:58:56.263Z,99.90
2019-05-11T01:01:26.083Z,99.90
2019-05-11T01:03:55.816Z,99.90
2019-05-11T01:06:25.611Z,99.90
2019-05-11T01:08:55.388Z,99.90
2019-05-11T01:11:25.130Z,99.90
2019-05-11T01:13:55.307Z,99.90
2019-05-11T01:16:25.018Z,99.90
2019-05-11T01:18:54.754Z,99.90
2019-05-11T01:21:24.540Z,99.90
2019-05-11T01:23:54.256Z,99.90
2019-05-11T01:26:24.015Z,99.90
2019-05-11T01:28:54.191Z,99.90
2019-05-11T01:31:23.905Z,99.90
2019-05-11T01:33:53.653Z,99.90
2019-05-11T01:36:23.529Z,99.90
2019-05-11T01:38:53.570Z,99.90
2019-05-11T01:41:23.306Z,99.90
2019-05-11T01:43:53.133Z,99.90
2019-05-11T01:46:22.872Z,99.90
2019-05-11T01:48:52.693Z,99.90
2019-05-11T01:51:22.467Z,99.90
2019-05-11T01:53:52.507Z,99.90
2019-05-11T01:56:22.339Z,99.90
2019-05-11T01:58:52.157Z,99.90
2019-05-11T02:01:21.908Z,99.90
2019-05-11T02:03:51.715Z,99.90
2019-05-11T02:06:21.506Z,99.90
2019-05-11T02:08:51.528Z,99.90
2019-05-11T02:11:21.295Z,99.90
2019-05-11T02:13:51.103Z,99.90
2019-05-11T02:16:20.839Z,99.90
2019-05-11T02:18:50.540Z,99.90
2019-05-11T02:21:20.421Z,99.90
2019-05-11T02:23:50.168Z,99.90
2019-05-11T02:26:20.235Z,99.90
2019-05-11T02:28:50.031Z,99.90
2019-05-11T02:31:19.845Z,99.90
2019-05-11T02:33:49.545Z,99.90
2019-05-11T02:36:19.578Z,99.90
2019-05-11T02:38:49.314Z,99.90
2019-05-11T02:41:34.519Z,99.90
2019-05-11T02:43:50.955Z,99.90
2019-05-11T02:46:20.740Z,99.90
2019-05-11T02:48:50.565Z,99.90
2019-05-11T02:51:20.661Z,99.90
2019-05-11T02:53:50.842Z,99.90
2019-05-11T02:56:20.899Z,99.90
2019-05-11T02:58:50.672Z,99.90
2019-05-11T03:01:20.419Z,99.90
2019-05-11T03:03:50.143Z,99.90
2019-05-11T03:06:20.167Z,99.90
2019-05-11T03:08:49.896Z,99.90
2019-05-11T03:11:20.060Z,99.90
2019-05-11T03:13:49.898Z,99.90
2019-05-11T03:16:19.766Z,99.90
2019-05-11T03:18:49.493Z,99.90
2019-05-11T03:21:19.365Z,99.90
2019-05-11T03:23:49.120Z,99.90
2019-05-11T03:26:19.129Z,99.90
2019-05-11T03:28:49.085Z,99.90
2019-05-11T03:31:18.837Z,99.90
2019-05-11T03:33:48.636Z,99.90
2019-05-11T03:36:18.920Z,99.90
2019-05-11T03:38:48.689Z,99.90
2019-05-11T03:41:18.509Z,99.90
2019-05-11T03:43:48.777Z,99.90
2019-05-11T03:46:18.500Z,99.90
2019-05-11T03:48:48.380Z,99.90
2019-05-11T03:51:18.342Z,99.90
2019-05-11T03:53:48.126Z,99.90
2019-05-11T03:56:17.892Z,99.90
2019-05-11T03:58:48.076Z,99.90
2019-05-11T04:01:17.944Z,99.90
2019-05-11T04:03:47.748Z,99.90
2019-05-11T04:06:17.600Z,99.90
2019-05-11T04:08:47.583Z,99.90
2019-05-11T04:11:17.325Z,99.90
2019-05-11T04:13:47.449Z,99.90
2019-05-11T04:16:17.195Z,99.90
2019-05-11T04:18:46.950Z,99.90
2019-05-11T04:21:16.777Z,99.90
2019-05-11T04:23:46.832Z,99.90
2019-05-11T04:26:16.695Z,99.90
2019-05-11T04:28:46.503Z,99.90
2019-05-11T04:31:16.273Z,99.90
2019-05-11T04:33:46.312Z,99.90
2019-05-11T04:36:16.520Z,99.90
2019-05-11T04:38:46.336Z,99.90
2019-05-11T04:41:16.231Z,99.90
2019-05-11T04:43:46.314Z,99.90
2019-05-11T04:46:16.569Z,99.90
2019-05-11T04:48:46.463Z,99.90
2019-05-11T04:51:16.415Z,99.90
2019-05-11T04:53:46.134Z,99.90
2019-05-11T04:56:16.003Z,99.90
2019-05-11T04:58:45.825Z,99.90
2019-05-11T05:01:15.951Z,99.90
2019-05-11T05:03:47.522Z,99.90
2019-05-11T05:06:24.843Z,99.90
2019-05-11T05:08:49.019Z,99.90
2019-05-11T05:11:18.806Z,99.90
2019-05-11T05:13:53.115Z,99.90
2019-05-11T05:16:21.078Z,99.90
2019-05-11T05:18:50.820Z,99.90
2019-05-11T05:21:21.121Z,99.90
2019-05-11T05:23:51.888Z,99.90
2019-05-11T05:26:22.760Z,99.90
2019-05-11T05:28:58.075Z,99.90
2019-05-11T05:31:29.010Z,99.90
2019-05-11T05:34:10.540Z,99.90
2019-05-11T05:36:40.563Z,99.90
2019-05-11T05:39:10.287Z,99.90
2019-05-11T05:41:40.299Z,99.90
2019-05-11T05:44:10.015Z,99.90
2019-05-11T05:46:41.353Z,99.90
2019-05-11T05:49:11.170Z,99.90
2019-05-11T05:51:41.213Z,99.90
2019-05-11T05:54:13.349Z,99.90
2019-05-11T05:56:43.463Z,99.90
2019-05-11T05:59:13.207Z,99.90
2019-05-11T06:01:43.236Z,99.90
2019-05-11T06:04:13.124Z,99.90
2019-05-11T06:06:42.951Z,99.90
2019-05-11T06:09:12.702Z,99.90
2019-05-11T06:11:42.604Z,99.90
2019-05-11T06:14:13.200Z,99.90
2019-05-11T06:16:43.324Z,99.90
2019-05-11T06:19:13.111Z,99.90
2019-05-11T06:21:42.855Z,99.90
2019-05-11T06:24:12.609Z,99.90
2019-05-11T06:26:42.501Z,99.90
2019-05-11T06:29:21.505Z,99.90
2019-05-11T06:31:49.738Z,99.90
2019-05-11T06:34:19.972Z,99.90
2019-05-11T06:36:49.922Z,99.90
2019-05-11T06:39:19.748Z,99.90
2019-05-11T06:41:49.501Z,99.90
2019-05-11T06:44:19.875Z,99.90
2019-05-11T06:46:49.950Z,99.90
2019-05-11T06:49:19.738Z,99.90
2019-05-11T06:51:49.625Z,99.90
2019-05-11T06:54:19.463Z,99.90
2019-05-11T06:56:49.319Z,99.90
2019-05-11T06:59:19.510Z,99.90
2019-05-11T07:01:49.436Z,99.90
2019-05-11T07:04:19.171Z,99.90
2019-05-11T07:06:49.294Z,99.90
2019-05-11T07:09:19.290Z,99.90
2019-05-11T07:11:50.291Z,99.90
2019-05-11T07:14:21.676Z,99.90
2019-05-11T07:16:52.323Z,99.90
2019-05-11T07:19:22.068Z,99.90
2019-05-11T07:21:51.988Z,99.90
2019-05-11T07:24:22.031Z,99.90
2019-05-11T07:26:52.223Z,99.90
2019-05-11T07:29:22.421Z,99.90
2019-05-11T07:31:52.333Z,99.90
2019-05-11T07:34:22.143Z,99.90
2019-05-11T07:36:51.899Z,99.90
2019-05-11T07:39:21.932Z,99.90
2019-05-11T07:41:52.103Z,99.90
2019-05-11T07:44:34.996Z,99.90
2019-05-11T07:46:53.303Z,99.90
2019-05-11T07:49:23.560Z,99.90
2019-05-11T07:51:53.547Z,99.90
2019-05-11T07:54:23.466Z,99.90
2019-05-11T07:56:53.516Z,99.90
2019-05-11T07:59:23.314Z,99.90
2019-05-11T08:01:53.128Z,99.90
2019-05-11T08:04:22.895Z,99.90
2019-05-11T08:06:52.781Z,99.90
2019-05-11T08:09:22.580Z,99.90
2019-05-11T08:11:52.724Z,99.90
2019-05-11T08:14:22.612Z,99.90
2019-05-11T08:16:52.563Z,99.90
2019-05-11T08:19:22.508Z,99.90
2019-05-11T08:21:52.337Z,99.90
2019-05-11T08:24:22.231Z,99.90
2019-05-11T08:26:52.476Z,99.90
2019-05-11T08:29:22.310Z,99.90
2019-05-11T08:31:52.319Z,99.90
2019-05-11T08:34:22.069Z,99.90
2019-05-11T08:36:52.141Z,99.90
2019-05-11T08:39:22.288Z,99.90
2019-05-11T08:41:52.796Z,99.90
2019-05-11T08:44:23.101Z,99.90
2019-05-11T08:46:53.077Z,99.90
2019-05-11T08:49:22.866Z,99.90
2019-05-11T08:51:52.737Z,99.90
2019-05-11T08:54:23.053Z,99.90
2019-05-11T08:56:52.836Z,99.90
2019-05-11T08:59:22.580Z,99.90
2019-05-11T09:01:52.386Z,99.90
2019-05-11T09:04:22.164Z,99.90
2019-05-11T09:06:51.986Z,99.90
2019-05-11T09:09:21.926Z,99.90
2019-05-11T09:11:51.712Z,99.90
2019-05-11T09:14:21.625Z,99.90
2019-05-11T09:16:51.868Z,99.90
2019-05-11T09:19:21.670Z,99.90
2019-05-11T09:21:51.570Z,99.90
2019-05-11T09:24:21.483Z,99.90
2019-05-11T09:26:51.727Z,99.90
2019-05-11T09:29:21.707Z,99.90
2019-05-11T09:31:51.734Z,99.90
2019-05-11T09:34:21.761Z,99.90
2019-05-11T09:36:51.606Z,99.90
2019-05-11T09:39:21.537Z,99.90
2019-05-11T09:41:51.292Z,99.90
2019-05-11T09:44:21.119Z,99.90
2019-05-11T09:46:51.047Z,99.90
2019-05-11T09:49:20.859Z,99.90
2019-05-11T09:51:50.647Z,99.90
2019-05-11T09:54:20.867Z,99.90
2019-05-11T09:56:50.656Z,99.90
2019-05-11T09:59:20.417Z,99.90
2019-05-11T10:01:50.239Z,99.90
2019-05-11T10:04:20.066Z,99.90
2019-05-11T10:06:49.876Z,99.90
2019-05-11T10:09:19.701Z,99.90
2019-05-11T10:11:49.513Z,99.90
2019-05-11T10:14:20.941Z,99.90
2019-05-11T10:16:53.114Z,99.90
2019-05-11T10:19:28.226Z,99.90
2019-05-11T10:21:58.205Z,99.90
2019-05-11T10:24:28.496Z,99.90
2019-05-11T10:26:58.376Z,99.90
2019-05-11T10:29:40.953Z,99.90
2019-05-11T10:32:13.370Z,99.90
2019-05-11T10:34:47.818Z,99.90
2019-05-11T10:37:18.227Z,99.90
2019-05-11T10:39:48.807Z,99.90
2019-05-11T10:42:18.916Z,99.90
2019-05-11T10:44:48.820Z,99.90
2019-05-11T10:47:19.033Z,99.90
2019-05-11T10:49:49.028Z,99.90
2019-05-11T10:52:18.766Z,99.90
2019-05-11T10:54:48.956Z,99.90
2019-05-11T10:57:19.058Z,99.90
2019-05-11T10:59:49.038Z,99.90
2019-05-11T11:02:18.921Z,99.90
2019-05-11T11:04:49.164Z,99.90
2019-05-11T11:07:19.445Z,99.90
2019-05-11T11:09:49.425Z,99.90
2019-05-11T11:12:19.211Z,99.90
2019-05-11T11:14:48.960Z,99.90
2019-05-11T11:17:19.256Z,99.90
2019-05-11T11:19:49.872Z,99.90
2019-05-11T11:22:36.199Z,99.90
2019-05-11T11:24:51.137Z,99.90
2019-05-11T11:27:21.383Z,99.90
2019-05-11T11:29:51.171Z,99.90
2019-05-11T11:32:20.929Z,99.90
2019-05-11T11:34:50.839Z,99.90
2019-05-11T11:37:21.628Z,99.90
2019-05-11T11:39:51.716Z,99.90
2019-05-11T11:42:21.853Z,99.90
2019-05-11T11:44:51.672Z,99.90
2019-05-11T11:47:21.873Z,99.90
2019-05-11T11:49:51.846Z,99.90
2019-05-11T11:52:21.812Z,99.90
2019-05-11T11:54:51.945Z,99.90
2019-05-11T11:57:21.789Z,99.90
2019-05-11T11:59:51.572Z,99.90
2019-05-11T12:02:21.351Z,99.90
2019-05-11T12:04:51.707Z,99.90
2019-05-11T12:07:21.668Z,99.90
2019-05-11T12:09:51.464Z,99.90
2019-05-11T12:12:22.725Z,99.90
2019-05-11T12:14:52.724Z,99.90
2019-05-11T12:17:22.579Z,99.90
2019-05-11T12:22:50.688Z,99.90
2019-05-11T12:25:20.693Z,99.90
2019-05-11T12:27:50.479Z,99.90
2019-05-11T12:30:20.754Z,99.90
2019-05-11T12:32:51.747Z,99.90
2019-05-11T12:35:21.850Z,99.90
2019-05-11T12:37:51.636Z,99.90
2019-05-11T12:40:21.798Z,99.90
2019-05-11T12:42:51.572Z,99.90
2019-05-11T12:45:21.764Z,99.90
2019-05-11T12:47:51.591Z,99.90
2019-05-11T12:50:22.782Z,99.90
2019-05-11T12:52:55.584Z,99.90
2019-05-11T12:55:24.713Z,99.90
2019-05-11T12:57:54.520Z,99.90
2019-05-11T13:00:28.152Z,99.90
2019-05-11T13:02:58.559Z,99.90
2019-05-11T13:05:29.276Z,99.90
2019-05-11T13:07:59.077Z,99.90
2019-05-11T13:10:29.363Z,99.90
2019-05-11T13:13:02.428Z,99.90
2019-05-11T13:15:33.602Z,99.90
2019-05-11T13:18:03.792Z,99.90
2019-05-11T13:20:34.263Z,99.90
2019-05-11T13:23:08.131Z,99.90
2019-05-11T13:25:41.619Z,99.90
2019-05-11T13:28:11.808Z,99.90
2019-05-11T13:30:42.535Z,99.90
2019-05-11T13:33:12.536Z,99.90
2019-05-11T13:35:42.607Z,99.90
2019-05-11T13:38:12.445Z,99.90
2019-05-11T13:40:42.411Z,99.90
2019-05-11T13:43:12.196Z,99.90
2019-05-11T13:45:41.972Z,99.90
2019-05-11T13:48:11.780Z,99.90
2019-05-11T13:50:41.524Z,99.90
2019-05-11T13:53:11.678Z,99.90
2019-05-11T13:55:41.583Z,99.90
2019-05-11T13:58:11.347Z,99.90
2019-05-11T14:00:41.460Z,99.90
2019-05-11T14:03:11.305Z,99.90
2019-05-11T14:05:41.101Z,99.90
2019-05-11T14:08:11.023Z,99.90
2019-05-11T14:10:40.941Z,99.90
2019-05-11T14:13:10.764Z,99.90
2019-05-11T14:15:40.952Z,99.90
2019-05-11T14:18:12.032Z,99.90
2019-05-11T14:20:42.015Z,99.90
2019-05-11T14:23:18.074Z,99.90
2019-05-11T14:25:48.686Z,99.90
2019-05-11T14:28:18.488Z,99.90
2019-05-11T14:30:48.807Z,99.90
2019-05-11T14:33:18.624Z,99.90
2019-05-11T14:35:54.784Z,99.90
2019-05-11T14:38:28.875Z,99.90
2019-05-11T14:40:58.791Z,99.90
2019-05-11T14:43:28.953Z,99.90
2019-05-11T14:45:58.918Z,99.90
2019-05-11T14:48:31.706Z,99.90
2019-05-11T14:51:01.852Z,99.90
2019-05-11T14:53:31.781Z,99.90
2019-05-11T14:56:01.605Z,99.90
2019-05-11T14:58:31.332Z,99.90
2019-05-11T15:01:01.353Z,99.90
2019-05-11T15:03:31.163Z,99.90
2019-05-11T15:06:00.942Z,99.90
2019-05-11T15:08:31.081Z,99.90
2019-05-11T15:11:00.892Z,99.90
2019-05-11T15:13:30.654Z,99.90
2019-05-11T15:16:02.068Z,99.90
2019-05-11T15:18:38.761Z,99.90
2019-05-11T15:21:08.268Z,99.90
2019-05-11T15:23:38.507Z,99.90
2019-05-11T15:26:10.097Z,99.90
2019-05-11T15:28:39.727Z,99.90
2019-05-11T15:31:09.483Z,99.90
2019-05-11T15:33:42.647Z,99.90
2019-05-11T15:36:12.443Z,99.90
2019-05-11T15:38:44.051Z,99.90
2019-05-11T15:41:14.477Z,99.90
2019-05-11T15:43:48.042Z,99.90
2019-05-11T15:46:19.841Z,96.30
2019-05-11T15:48:58.755Z,96.90
2019-05-11T15:51:21.068Z,99.60
2019-05-11T15:53:50.926Z,99.20
2019-05-11T15:56:21.010Z,96.70
2019-05-11T15:58:50.754Z,96.70
2019-05-11T16:01:20.570Z,97.60
2019-05-11T16:03:50.393Z,94.70
2019-05-11T16:06:20.606Z,94.90
2019-05-11T16:08:50.444Z,94.70
2019-05-11T16:11:20.265Z,94.10
2019-05-11T16:13:50.020Z,97.40
2019-05-11T16:16:20.051Z,95.50
2019-05-11T16:18:50.752Z,97.10
2019-05-11T16:21:20.964Z,96.10
2019-05-11T16:23:50.776Z,96.20
2019-05-11T16:26:20.596Z,96.60
2019-05-11T16:28:50.319Z,95.50
2019-05-11T16:31:20.583Z,95.20
2019-05-11T16:33:50.359Z,94.50
2019-05-11T16:36:20.108Z,93.60
2019-05-11T16:38:50.035Z,94.40
2019-05-11T16:41:22.071Z,95.30
2019-05-11T16:43:51.881Z,96.30
2019-05-11T16:46:21.643Z,94.90
2019-05-11T16:48:51.416Z,95.00
2019-05-11T16:51:21.218Z,95.30
2019-05-11T16:53:51.039Z,95.20
2019-05-11T16:56:20.807Z,96.70
2019-05-11T16:58:50.582Z,98.70
2019-05-11T17:01:20.466Z,98.10
2019-05-11T17:03:57.830Z,97.80
2019-05-11T17:06:31.935Z,98.30
2019-05-11T17:09:01.968Z,98.50
2019-05-11T17:11:38.417Z,98.00
2019-05-11T17:14:08.883Z,98.50
2019-05-11T17:16:39.565Z,98.70
2019-05-11T17:19:11.939Z,99.70
2019-05-11T17:21:41.697Z,99.90
2019-05-11T17:24:11.567Z,99.30
2019-05-11T17:26:41.430Z,98.40
2019-05-11T17:29:15.187Z,99.50
2019-05-11T17:31:44.995Z,99.90
2019-05-11T17:34:20.595Z,99.90
2019-05-11T17:36:52.722Z,99.90
2019-05-11T17:39:22.615Z,99.90
2019-05-11T17:41:52.351Z,99.90
2019-05-11T17:44:22.252Z,99.90
2019-05-11T17:46:52.592Z,99.90
2019-05-11T17:49:22.433Z,99.90
2019-05-11T17:51:52.278Z,99.90
2019-05-11T17:54:22.141Z,99.90
2019-05-11T17:56:52.317Z,99.90
2019-05-11T17:59:22.111Z,99.90
2019-05-11T18:01:52.071Z,99.90
2019-05-11T18:04:21.851Z,99.90
2019-05-11T18:06:51.600Z,99.90
2019-05-11T18:09:21.661Z,99.90
2019-05-11T18:11:51.484Z,99.90
2019-05-11T18:14:21.343Z,99.90
2019-05-11T18:16:51.435Z,99.90
2019-05-11T18:19:21.157Z,99.90
2019-05-11T18:21:51.551Z,99.90
2019-05-11T18:24:21.475Z,99.90
2019-05-11T18:26:51.288Z,99.90
2019-05-11T18:29:21.591Z,99.90
2019-05-11T18:31:51.640Z,99.90
2019-05-11T18:34:21.411Z,99.90
2019-05-11T18:36:52.588Z,99.90
2019-05-11T18:39:22.570Z,99.90
2019-05-11T18:41:52.392Z,99.90
2019-05-11T18:44:22.336Z,99.90
2019-05-11T18:46:52.410Z,99.90
2019-05-11T18:49:22.204Z,99.90
2019-05-11T18:51:52.608Z,99.90
2019-05-11T18:54:22.499Z,99.90
2019-05-11T18:56:52.330Z,99.90
2019-05-11T18:59:22.128Z,99.90
2019-05-11T19:01:52.094Z,99.90
2019-05-11T19:04:22.291Z,99.90
2019-05-11T19:06:52.419Z,99.90
2019-05-11T19:09:22.322Z,99.90
2019-05-11T19:11:52.113Z,99.90
2019-05-11T19:14:21.959Z,99.90
2019-05-11T19:16:53.177Z,99.90
2019-05-11T19:19:23.070Z,99.90
2019-05-11T19:21:52.832Z,99.90
2019-05-11T19:24:23.123Z,99.90
2019-05-11T19:26:52.880Z,99.90
2019-05-11T19:29:30.450Z,99.90
2019-05-11T19:32:00.645Z,99.90
2019-05-11T19:34:30.733Z,99.90
2019-05-11T19:37:00.504Z,99.90
2019-05-11T19:39:30.375Z,99.90
2019-05-11T19:42:00.074Z,99.90
2019-05-11T19:44:32.795Z,99.90
2019-05-11T19:47:03.003Z,99.90
2019-05-11T19:49:32.939Z,99.90
2019-05-11T19:52:02.922Z,99.90
2019-05-11T19:54:32.744Z,99.90
2019-05-11T19:57:02.565Z,99.90
2019-05-11T19:59:32.673Z,99.90
2019-05-11T20:02:02.610Z,99.90
2019-05-11T20:04:32.415Z,99.90
2019-05-11T20:07:02.292Z,99.90
2019-05-11T20:09:32.135Z,99.90
2019-05-11T20:12:01.941Z,99.90
2019-05-11T20:14:31.752Z,99.90
2019-05-11T20:17:01.943Z,99.90
2019-05-11T20:19:31.756Z,99.90
2019-05-11T20:22:01.624Z,99.90
2019-05-11T20:24:31.965Z,99.90
2019-05-11T20:27:01.805Z,99.90
2019-05-11T20:29:38.956Z,99.90
2019-05-11T20:32:08.965Z,99.90
2019-05-11T20:34:39.061Z,99.90
2019-05-11T20:37:08.957Z,99.90
2019-05-11T20:39:38.731Z,99.90
2019-05-11T20:42:08.802Z,99.90
2019-05-11T20:44:38.897Z,99.90
2019-05-11T20:47:08.762Z,99.90
2019-05-11T20:49:38.956Z,99.90
2019-05-11T20:52:08.879Z,99.90
2019-05-11T20:54:38.691Z,99.90
2019-05-11T20:57:08.932Z,99.90
2019-05-11T20:59:38.952Z,99.90
2019-05-11T21:02:09.283Z,99.90
2019-05-11T21:04:39.645Z,99.90
2019-05-11T21:07:09.524Z,99.90
2019-05-11T21:09:39.305Z,99.90
2019-05-11T21:12:09.087Z,99.90
2019-05-11T21:14:38.963Z,99.90
2019-05-11T21:17:09.098Z,99.90
2019-05-11T21:19:42.417Z,99.90
2019-05-11T21:22:10.723Z,99.90
2019-05-11T21:24:40.499Z,99.90
2019-05-11T21:27:10.307Z,99.90
2019-05-11T21:29:40.349Z,99.90
2019-05-11T21:32:10.131Z,99.90
2019-05-11T21:34:40.233Z,99.90
2019-05-11T21:37:10.094Z,99.90
2019-05-11T21:39:39.969Z,99.90
2019-05-11T21:42:09.749Z,99.90
2019-05-11T21:44:40.108Z,99.90
2019-05-11T21:47:09.815Z,99.90
2019-05-11T21:49:39.608Z,99.90
2019-05-11T21:52:09.505Z,99.90
2019-05-11T21:54:39.391Z,99.90
2019-05-11T21:57:09.217Z,99.90
2019-05-11T21:59:39.360Z,99.90
2019-05-11T22:02:11.107Z,99.90
2019-05-11T22:04:40.892Z,99.90
2019-05-11T22:07:10.885Z,99.90
2019-05-11T22:09:40.797Z,99.90
2019-05-11T22:12:10.845Z,99.90
2019-05-11T22:14:41.186Z,99.90
2019-05-11T22:17:10.997Z,99.90
2019-05-11T22:19:40.818Z,99.90
2019-05-11T22:22:21.180Z,99.90
2019-05-11T22:24:42.230Z,99.90
2019-05-11T22:27:12.019Z,99.90
2019-05-11T22:29:42.486Z,99.90
2019-05-11T22:32:12.342Z,99.90
2019-05-11T22:34:42.096Z,99.90
2019-05-11T22:37:12.700Z,99.90
2019-05-11T22:39:42.423Z,99.90
2019-05-11T22:42:12.246Z,99.90
2019-05-11T22:44:42.970Z,99.90
2019-05-11T22:47:12.722Z,99.90
2019-05-11T22:49:42.460Z,99.90
2019-05-11T22:52:12.309Z,99.90
2019-05-11T22:54:42.111Z,99.90
2019-05-11T22:57:12.067Z,99.90
2019-05-11T22:59:42.269Z,99.90
2019-05-11T23:02:12.033Z,99.90
2019-05-11T23:04:41.784Z,99.90
2019-05-11T23:07:11.806Z,99.90
2019-05-11T23:09:41.625Z,99.90
2019-05-11T23:12:11.392Z,99.90
2019-05-11T23:14:41.599Z,99.90
2019-05-11T23:17:11.333Z,99.90
2019-05-11T23:19:41.108Z,99.90
2019-05-11T23:22:10.904Z,99.90
2019-05-11T23:24:40.700Z,99.90
2019-05-11T23:27:10.426Z,99.90
2019-05-11T23:29:40.528Z,99.90
2019-05-11T23:32:10.590Z,99.90
2019-05-11T23:34:40.335Z,99.90
2019-05-11T23:37:10.292Z,99.90
2019-05-11T23:39:40.063Z,99.90
2019-05-11T23:42:09.808Z,99.90
2019-05-11T23:44:39.803Z,99.90
2019-05-11T23:47:09.855Z,99.90
2019-05-11T23:49:39.590Z,99.90
2019-05-11T23:52:09.783Z,99.90
2019-05-11T23:54:39.584Z,99.90
2019-05-11T23:57:09.583Z,99.90
2019-05-11T23:59:40.284Z,99.90
